sensor_id;sensor_type;location;lat;lon;timestamp;P1;durP1;ratioP1;P2;durP2;ratioP2
58302;SDS011;44109;52.398;7.024;2024-02-14T00:01:16;6.93;;;5.53;;
58302;SDS011;44109;52.398;7.024;2024-02-14T00:03:44;6.82;;;4.72;;
58302;SDS011;44109;52.398;7.024;2024-02-14T00:06:14;8.27;;;5.82;;
58302;SDS011;44109;52.398;7.024;2024-02-14T00:08:43;7.80;;;5.38;;
58302;SDS011;44109;52.398;7.024;2024-02-14T00:11:11;8.60;;;6.72;;
58302;SDS011;44109;52.398;7.024;2024-02-14T00:13:40;10.70;;;4.43;;
58302;SDS011;44109;52.398;7.024;2024-02-14T00:16:08;12.68;;;5.15;;
58302;SDS011;44109;52.398;7.024;2024-02-14T00:18:37;7.25;;;5.03;;
58302;SDS011;44109;52.398;7.024;2024-02-14T00:21:05;7.18;;;5.03;;
58302;SDS011;44109;52.398;7.024;2024-02-14T00:23:33;7.45;;;4.70;;
58302;SDS011;44109;52.398;7.024;2024-02-14T00:26:00;10.35;;;5.97;;
58302;SDS011;44109;52.398;7.024;2024-02-14T00:28:28;7.45;;;5.40;;
58302;SDS011;44109;52.398;7.024;2024-02-14T00:30:56;9.07;;;6.05;;
58302;SDS011;44109;52.398;7.024;2024-02-14T00:33:23;4.97;;;4.47;;
58302;SDS011;44109;52.398;7.024;2024-02-14T00:35:52;6.03;;;3.97;;
58302;SDS011;44109;52.398;7.024;2024-02-14T00:38:20;8.50;;;6.28;;
58302;SDS011;44109;52.398;7.024;2024-02-14T00:40:48;7.95;;;4.60;;
58302;SDS011;44109;52.398;7.024;2024-02-14T00:43:15;6.55;;;5.63;;
58302;SDS011;44109;52.398;7.024;2024-02-14T00:45:43;7.18;;;4.65;;
58302;SDS011;44109;52.398;7.024;2024-02-14T00:48:11;7.45;;;4.97;;
58302;SDS011;44109;52.398;7.024;2024-02-14T00:50:38;7.22;;;6.00;;
58302;SDS011;44109;52.398;7.024;2024-02-14T00:53:07;8.23;;;5.53;;
58302;SDS011;44109;52.398;7.024;2024-02-14T00:55:35;6.35;;;4.75;;
58302;SDS011;44109;52.398;7.024;2024-02-14T00:58:03;9.43;;;4.95;;
58302;SDS011;44109;52.398;7.024;2024-02-14T01:00:31;10.95;;;6.78;;
58302;SDS011;44109;52.398;7.024;2024-02-14T01:02:59;8.45;;;5.90;;
58302;SDS011;44109;52.398;7.024;2024-02-14T01:05:26;8.70;;;6.82;;
58302;SDS011;44109;52.398;7.024;2024-02-14T01:07:54;8.63;;;7.45;;
58302;SDS011;44109;52.398;7.024;2024-02-14T01:10:23;9.15;;;5.63;;
58302;SDS011;44109;52.398;7.024;2024-02-14T01:12:50;13.20;;;8.20;;
58302;SDS011;44109;52.398;7.024;2024-02-14T01:15:19;12.32;;;8.00;;
58302;SDS011;44109;52.398;7.024;2024-02-14T01:17:47;6.85;;;5.85;;
58302;SDS011;44109;52.398;7.024;2024-02-14T01:20:15;7.30;;;4.95;;
58302;SDS011;44109;52.398;7.024;2024-02-14T01:22:44;7.47;;;5.53;;
58302;SDS011;44109;52.398;7.024;2024-02-14T01:25:12;8.95;;;7.05;;
58302;SDS011;44109;52.398;7.024;2024-02-14T01:27:41;8.50;;;5.22;;
58302;SDS011;44109;52.398;7.024;2024-02-14T01:30:09;7.75;;;6.68;;
58302;SDS011;44109;52.398;7.024;2024-02-14T01:32:38;7.85;;;6.15;;
58302;SDS011;44109;52.398;7.024;2024-02-14T01:35:06;12.35;;;9.75;;
58302;SDS011;44109;52.398;7.024;2024-02-14T01:37:35;6.65;;;4.60;;
58302;SDS011;44109;52.398;7.024;2024-02-14T01:40:03;7.57;;;4.90;;
58302;SDS011;44109;52.398;7.024;2024-02-14T01:42:33;8.95;;;7.18;;
58302;SDS011;44109;52.398;7.024;2024-02-14T01:45:02;8.70;;;6.18;;
58302;SDS011;44109;52.398;7.024;2024-02-14T01:47:30;6.38;;;4.90;;
58302;SDS011;44109;52.398;7.024;2024-02-14T01:49:58;7.30;;;4.78;;
58302;SDS011;44109;52.398;7.024;2024-02-14T01:52:26;7.47;;;4.40;;
58302;SDS011;44109;52.398;7.024;2024-02-14T01:54:54;4.15;;;3.50;;
58302;SDS011;44109;52.398;7.024;2024-02-14T01:57:22;4.95;;;3.00;;
58302;SDS011;44109;52.398;7.024;2024-02-14T01:59:51;4.50;;;3.97;;
58302;SDS011;44109;52.398;7.024;2024-02-14T02:02:22;4.97;;;4.25;;
58302;SDS011;44109;52.398;7.024;2024-02-14T02:04:53;7.13;;;5.22;;
58302;SDS011;44109;52.398;7.024;2024-02-14T02:07:21;6.80;;;5.50;;
58302;SDS011;44109;52.398;7.024;2024-02-14T02:09:48;8.30;;;6.25;;
58302;SDS011;44109;52.398;7.024;2024-02-14T02:12:16;5.63;;;5.07;;
58302;SDS011;44109;52.398;7.024;2024-02-14T02:14:43;4.70;;;3.65;;
58302;SDS011;44109;52.398;7.024;2024-02-14T02:17:11;7.38;;;6.13;;
58302;SDS011;44109;52.398;7.024;2024-02-14T02:19:40;6.10;;;3.67;;
58302;SDS011;44109;52.398;7.024;2024-02-14T02:22:08;4.75;;;4.28;;
58302;SDS011;44109;52.398;7.024;2024-02-14T02:24:38;9.00;;;6.50;;
58302;SDS011;44109;52.398;7.024;2024-02-14T02:27:05;8.80;;;6.90;;
58302;SDS011;44109;52.398;7.024;2024-02-14T02:29:33;8.25;;;6.57;;
58302;SDS011;44109;52.398;7.024;2024-02-14T02:32:00;5.38;;;3.40;;
58302;SDS011;44109;52.398;7.024;2024-02-14T02:34:28;5.32;;;4.13;;
58302;SDS011;44109;52.398;7.024;2024-02-14T02:36:55;9.25;;;6.68;;
58302;SDS011;44109;52.398;7.024;2024-02-14T02:39:23;5.57;;;4.40;;
58302;SDS011;44109;52.398;7.024;2024-02-14T02:41:53;11.38;;;7.30;;
58302;SDS011;44109;52.398;7.024;2024-02-14T02:44:22;4.65;;;3.88;;
58302;SDS011;44109;52.398;7.024;2024-02-14T02:46:50;6.15;;;4.40;;
58302;SDS011;44109;52.398;7.024;2024-02-14T02:49:18;7.72;;;5.80;;
58302;SDS011;44109;52.398;7.024;2024-02-14T02:51:45;7.43;;;6.50;;
58302;SDS011;44109;52.398;7.024;2024-02-14T02:54:13;4.57;;;3.38;;
58302;SDS011;44109;52.398;7.024;2024-02-14T02:56:41;7.28;;;4.75;;
58302;SDS011;44109;52.398;7.024;2024-02-14T02:59:10;7.10;;;5.15;;
58302;SDS011;44109;52.398;7.024;2024-02-14T03:01:39;5.70;;;4.35;;
58302;SDS011;44109;52.398;7.024;2024-02-14T03:04:07;4.53;;;3.92;;
58302;SDS011;44109;52.398;7.024;2024-02-14T03:06:34;6.20;;;4.97;;
58302;SDS011;44109;52.398;7.024;2024-02-14T03:09:02;5.43;;;4.15;;
58302;SDS011;44109;52.398;7.024;2024-02-14T03:11:31;4.90;;;4.30;;
58302;SDS011;44109;52.398;7.024;2024-02-14T03:13:59;8.48;;;6.47;;
58302;SDS011;44109;52.398;7.024;2024-02-14T03:16:28;8.85;;;7.95;;
58302;SDS011;44109;52.398;7.024;2024-02-14T03:18:56;9.30;;;7.28;;
58302;SDS011;44109;52.398;7.024;2024-02-14T03:21:24;7.80;;;5.13;;
58302;SDS011;44109;52.398;7.024;2024-02-14T03:23:53;8.63;;;7.15;;
58302;SDS011;44109;52.398;7.024;2024-02-14T03:26:21;12.95;;;6.90;;
58302;SDS011;44109;52.398;7.024;2024-02-14T03:28:49;6.55;;;5.18;;
58302;SDS011;44109;52.398;7.024;2024-02-14T03:31:19;9.63;;;8.00;;
58302;SDS011;44109;52.398;7.024;2024-02-14T03:33:48;8.60;;;5.78;;
58302;SDS011;44109;52.398;7.024;2024-02-14T03:36:16;13.55;;;9.32;;
58302;SDS011;44109;52.398;7.024;2024-02-14T03:38:44;9.45;;;8.00;;
58302;SDS011;44109;52.398;7.024;2024-02-14T03:41:12;9.50;;;7.60;;
58302;SDS011;44109;52.398;7.024;2024-02-14T03:43:40;12.02;;;9.13;;
58302;SDS011;44109;52.398;7.024;2024-02-14T03:46:07;7.65;;;6.50;;
58302;SDS011;44109;52.398;7.024;2024-02-14T03:48:35;7.00;;;6.30;;
58302;SDS011;44109;52.398;7.024;2024-02-14T03:51:04;8.27;;;6.25;;
58302;SDS011;44109;52.398;7.024;2024-02-14T03:53:32;10.18;;;6.97;;
58302;SDS011;44109;52.398;7.024;2024-02-14T03:55:59;10.27;;;7.63;;
58302;SDS011;44109;52.398;7.024;2024-02-14T03:58:27;12.32;;;8.65;;
58302;SDS011;44109;52.398;7.024;2024-02-14T04:00:55;7.63;;;6.80;;
58302;SDS011;44109;52.398;7.024;2024-02-14T04:03:22;7.80;;;5.97;;
58302;SDS011;44109;52.398;7.024;2024-02-14T04:05:50;9.75;;;7.68;;
58302;SDS011;44109;52.398;7.024;2024-02-14T04:08:19;9.38;;;7.43;;
58302;SDS011;44109;52.398;7.024;2024-02-14T04:10:47;8.15;;;6.25;;
58302;SDS011;44109;52.398;7.024;2024-02-14T04:13:16;12.05;;;9.02;;
58302;SDS011;44109;52.398;7.024;2024-02-14T04:15:44;8.50;;;6.13;;
58302;SDS011;44109;52.398;7.024;2024-02-14T04:18:12;8.82;;;7.25;;
58302;SDS011;44109;52.398;7.024;2024-02-14T04:20:40;10.63;;;8.32;;
58302;SDS011;44109;52.398;7.024;2024-02-14T04:23:09;11.98;;;10.43;;
58302;SDS011;44109;52.398;7.024;2024-02-14T04:25:39;9.93;;;8.02;;
58302;SDS011;44109;52.398;7.024;2024-02-14T04:28:07;13.57;;;11.23;;
58302;SDS011;44109;52.398;7.024;2024-02-14T04:30:37;9.80;;;8.18;;
58302;SDS011;44109;52.398;7.024;2024-02-14T04:33:05;12.07;;;9.63;;
58302;SDS011;44109;52.398;7.024;2024-02-14T04:35:34;6.43;;;5.00;;
58302;SDS011;44109;52.398;7.024;2024-02-14T04:38:01;9.10;;;7.32;;
58302;SDS011;44109;52.398;7.024;2024-02-14T04:40:29;10.43;;;8.63;;
58302;SDS011;44109;52.398;7.024;2024-02-14T04:42:58;7.40;;;6.63;;
58302;SDS011;44109;52.398;7.024;2024-02-14T04:45:25;12.70;;;10.38;;
58302;SDS011;44109;52.398;7.024;2024-02-14T04:47:53;11.45;;;9.32;;
58302;SDS011;44109;52.398;7.024;2024-02-14T04:50:21;12.40;;;8.63;;
58302;SDS011;44109;52.398;7.024;2024-02-14T04:52:48;10.68;;;8.75;;
58302;SDS011;44109;52.398;7.024;2024-02-14T04:55:16;13.18;;;11.10;;
58302;SDS011;44109;52.398;7.024;2024-02-14T04:57:44;8.23;;;7.22;;
58302;SDS011;44109;52.398;7.024;2024-02-14T05:00:14;10.38;;;7.20;;
58302;SDS011;44109;52.398;7.024;2024-02-14T05:02:42;7.75;;;6.55;;
58302;SDS011;44109;52.398;7.024;2024-02-14T05:05:10;11.25;;;9.50;;
58302;SDS011;44109;52.398;7.024;2024-02-14T05:07:38;10.65;;;9.55;;
58302;SDS011;44109;52.398;7.024;2024-02-14T05:10:06;13.38;;;9.93;;
58302;SDS011;44109;52.398;7.024;2024-02-14T05:12:34;8.02;;;6.18;;
58302;SDS011;44109;52.398;7.024;2024-02-14T05:15:02;9.23;;;6.50;;
58302;SDS011;44109;52.398;7.024;2024-02-14T05:17:31;7.07;;;4.97;;
58302;SDS011;44109;52.398;7.024;2024-02-14T05:20:00;9.52;;;8.52;;
58302;SDS011;44109;52.398;7.024;2024-02-14T05:22:28;8.75;;;6.75;;
58302;SDS011;44109;52.398;7.024;2024-02-14T05:24:56;10.60;;;8.77;;
58302;SDS011;44109;52.398;7.024;2024-02-14T05:27:24;8.50;;;7.25;;
58302;SDS011;44109;52.398;7.024;2024-02-14T05:29:52;6.55;;;5.75;;
58302;SDS011;44109;52.398;7.024;2024-02-14T05:32:19;11.77;;;9.82;;
58302;SDS011;44109;52.398;7.024;2024-02-14T05:34:48;8.45;;;6.95;;
58302;SDS011;44109;52.398;7.024;2024-02-14T05:37:16;11.00;;;8.05;;
58302;SDS011;44109;52.398;7.024;2024-02-14T05:39:43;10.02;;;8.65;;
58302;SDS011;44109;52.398;7.024;2024-02-14T05:42:11;10.88;;;8.95;;
58302;SDS011;44109;52.398;7.024;2024-02-14T05:44:39;16.92;;;13.60;;
58302;SDS011;44109;52.398;7.024;2024-02-14T05:47:06;12.80;;;11.02;;
58302;SDS011;44109;52.398;7.024;2024-02-14T05:49:34;17.73;;;14.10;;
58302;SDS011;44109;52.398;7.024;2024-02-14T05:52:03;17.92;;;13.50;;
58302;SDS011;44109;52.398;7.024;2024-02-14T05:54:32;14.38;;;11.55;;
58302;SDS011;44109;52.398;7.024;2024-02-14T05:57:00;13.93;;;10.73;;
58302;SDS011;44109;52.398;7.024;2024-02-14T05:59:28;7.90;;;6.40;;
58302;SDS011;44109;52.398;7.024;2024-02-14T06:01:56;12.60;;;8.10;;
58302;SDS011;44109;52.398;7.024;2024-02-14T06:04:24;16.77;;;13.27;;
58302;SDS011;44109;52.398;7.024;2024-02-14T06:06:51;18.98;;;13.40;;
58302;SDS011;44109;52.398;7.024;2024-02-14T06:09:20;22.55;;;17.13;;
58302;SDS011;44109;52.398;7.024;2024-02-14T06:11:48;12.80;;;10.07;;
58302;SDS011;44109;52.398;7.024;2024-02-14T06:14:15;17.20;;;12.18;;
58302;SDS011;44109;52.398;7.024;2024-02-14T06:16:43;12.90;;;10.57;;
58302;SDS011;44109;52.398;7.024;2024-02-14T06:19:11;14.68;;;12.55;;
58302;SDS011;44109;52.398;7.024;2024-02-14T06:21:38;13.40;;;10.32;;
58302;SDS011;44109;52.398;7.024;2024-02-14T06:24:06;15.88;;;11.55;;
58302;SDS011;44109;52.398;7.024;2024-02-14T06:26:38;10.32;;;8.73;;
58302;SDS011;44109;52.398;7.024;2024-02-14T06:29:06;16.30;;;13.48;;
58302;SDS011;44109;52.398;7.024;2024-02-14T06:31:33;15.57;;;12.07;;
58302;SDS011;44109;52.398;7.024;2024-02-14T06:34:01;21.27;;;14.73;;
58302;SDS011;44109;52.398;7.024;2024-02-14T06:36:28;19.30;;;14.32;;
58302;SDS011;44109;52.398;7.024;2024-02-14T06:38:56;21.02;;;16.52;;
58302;SDS011;44109;52.398;7.024;2024-02-14T06:41:24;22.73;;;15.93;;
58302;SDS011;44109;52.398;7.024;2024-02-14T06:43:53;22.55;;;14.75;;
58302;SDS011;44109;52.398;7.024;2024-02-14T06:46:20;28.60;;;18.35;;
58302;SDS011;44109;52.398;7.024;2024-02-14T06:48:48;18.55;;;14.15;;
58302;SDS011;44109;52.398;7.024;2024-02-14T06:51:15;22.17;;;16.40;;
58302;SDS011;44109;52.398;7.024;2024-02-14T06:53:43;20.40;;;15.32;;
58302;SDS011;44109;52.398;7.024;2024-02-14T06:56:11;14.60;;;11.30;;
58302;SDS011;44109;52.398;7.024;2024-02-14T06:58:38;16.63;;;12.32;;
58302;SDS011;44109;52.398;7.024;2024-02-14T07:01:07;31.30;;;21.20;;
58302;SDS011;44109;52.398;7.024;2024-02-14T07:03:37;22.05;;;17.00;;
58302;SDS011;44109;52.398;7.024;2024-02-14T07:06:06;23.13;;;16.25;;
58302;SDS011;44109;52.398;7.024;2024-02-14T07:08:34;19.67;;;14.65;;
58302;SDS011;44109;52.398;7.024;2024-02-14T07:11:01;22.95;;;15.38;;
58302;SDS011;44109;52.398;7.024;2024-02-14T07:13:29;28.40;;;20.25;;
58302;SDS011;44109;52.398;7.024;2024-02-14T07:15:57;19.50;;;14.45;;
58302;SDS011;44109;52.398;7.024;2024-02-14T07:18:27;21.25;;;15.35;;
58302;SDS011;44109;52.398;7.024;2024-02-14T07:20:54;19.85;;;14.50;;
58302;SDS011;44109;52.398;7.024;2024-02-14T07:23:22;26.33;;;16.88;;
58302;SDS011;44109;52.398;7.024;2024-02-14T07:25:50;16.83;;;13.13;;
58302;SDS011;44109;52.398;7.024;2024-02-14T07:28:17;24.80;;;17.88;;
58302;SDS011;44109;52.398;7.024;2024-02-14T07:30:45;21.92;;;15.45;;
58302;SDS011;44109;52.398;7.024;2024-02-14T07:33:12;24.35;;;17.15;;
58302;SDS011;44109;52.398;7.024;2024-02-14T07:35:41;19.10;;;14.63;;
58302;SDS011;44109;52.398;7.024;2024-02-14T07:38:09;20.30;;;15.15;;
58302;SDS011;44109;52.398;7.024;2024-02-14T07:40:37;22.00;;;16.80;;
58302;SDS011;44109;52.398;7.024;2024-02-14T07:43:05;22.75;;;18.23;;
58302;SDS011;44109;52.398;7.024;2024-02-14T07:45:33;22.65;;;17.17;;
58302;SDS011;44109;52.398;7.024;2024-02-14T07:48:01;19.33;;;15.10;;
58302;SDS011;44109;52.398;7.024;2024-02-14T07:50:29;19.08;;;13.88;;
58302;SDS011;44109;52.398;7.024;2024-02-14T07:52:58;16.10;;;13.88;;
58302;SDS011;44109;52.398;7.024;2024-02-14T07:55:25;21.33;;;16.08;;
58302;SDS011;44109;52.398;7.024;2024-02-14T07:57:53;17.13;;;12.48;;
58302;SDS011;44109;52.398;7.024;2024-02-14T08:00:21;18.90;;;15.30;;
58302;SDS011;44109;52.398;7.024;2024-02-14T08:02:50;20.20;;;16.40;;
58302;SDS011;44109;52.398;7.024;2024-02-14T08:05:18;16.50;;;10.65;;
58302;SDS011;44109;52.398;7.024;2024-02-14T08:07:46;14.18;;;10.75;;
58302;SDS011;44109;52.398;7.024;2024-02-14T08:10:15;13.57;;;10.85;;
58302;SDS011;44109;52.398;7.024;2024-02-14T08:12:42;13.05;;;11.43;;
58302;SDS011;44109;52.398;7.024;2024-02-14T08:15:10;9.73;;;8.52;;
58302;SDS011;44109;52.398;7.024;2024-02-14T08:17:38;14.30;;;11.15;;
58302;SDS011;44109;52.398;7.024;2024-02-14T08:20:06;11.02;;;9.88;;
58302;SDS011;44109;52.398;7.024;2024-02-14T08:22:34;12.73;;;9.07;;
58302;SDS011;44109;52.398;7.024;2024-02-14T08:25:02;12.32;;;9.68;;
58302;SDS011;44109;52.398;7.024;2024-02-14T08:27:32;17.27;;;10.55;;
58302;SDS011;44109;52.398;7.024;2024-02-14T08:29:59;14.23;;;10.73;;
58302;SDS011;44109;52.398;7.024;2024-02-14T08:32:27;13.00;;;10.02;;
58302;SDS011;44109;52.398;7.024;2024-02-14T08:34:54;12.02;;;9.77;;
58302;SDS011;44109;52.398;7.024;2024-02-14T08:37:22;11.13;;;9.35;;
58302;SDS011;44109;52.398;7.024;2024-02-14T08:39:51;12.52;;;10.68;;
58302;SDS011;44109;52.398;7.024;2024-02-14T08:42:19;9.75;;;7.28;;
58302;SDS011;44109;52.398;7.024;2024-02-14T08:44:48;8.95;;;7.60;;
58302;SDS011;44109;52.398;7.024;2024-02-14T08:47:15;13.45;;;10.68;;
58302;SDS011;44109;52.398;7.024;2024-02-14T08:49:43;9.93;;;8.20;;
58302;SDS011;44109;52.398;7.024;2024-02-14T08:52:10;12.80;;;10.32;;
58302;SDS011;44109;52.398;7.024;2024-02-14T08:54:38;10.55;;;8.50;;
58302;SDS011;44109;52.398;7.024;2024-02-14T08:57:06;9.77;;;8.80;;
58302;SDS011;44109;52.398;7.024;2024-02-14T08:59:33;13.95;;;12.02;;
58302;SDS011;44109;52.398;7.024;2024-02-14T09:02:02;18.95;;;15.50;;
58302;SDS011;44109;52.398;7.024;2024-02-14T09:04:30;15.43;;;13.05;;
58302;SDS011;44109;52.398;7.024;2024-02-14T09:06:58;11.90;;;10.38;;
58302;SDS011;44109;52.398;7.024;2024-02-14T09:09:25;12.98;;;10.85;;
58302;SDS011;44109;52.398;7.024;2024-02-14T09:11:53;12.35;;;9.88;;
58302;SDS011;44109;52.398;7.024;2024-02-14T09:14:21;11.73;;;9.55;;
58302;SDS011;44109;52.398;7.024;2024-02-14T09:16:49;16.10;;;12.23;;
58302;SDS011;44109;52.398;7.024;2024-02-14T09:19:17;13.80;;;11.35;;
58302;SDS011;44109;52.398;7.024;2024-02-14T09:21:45;15.32;;;12.82;;
58302;SDS011;44109;52.398;7.024;2024-02-14T09:24:13;13.95;;;11.02;;
58302;SDS011;44109;52.398;7.024;2024-02-14T09:26:41;18.08;;;14.98;;
58302;SDS011;44109;52.398;7.024;2024-02-14T09:29:09;14.90;;;10.55;;
58302;SDS011;44109;52.398;7.024;2024-02-14T09:31:37;11.75;;;10.13;;
58302;SDS011;44109;52.398;7.024;2024-02-14T09:34:04;11.20;;;9.68;;
58302;SDS011;44109;52.398;7.024;2024-02-14T09:36:33;20.85;;;16.67;;
58302;SDS011;44109;52.398;7.024;2024-02-14T09:39:01;16.45;;;13.20;;
58302;SDS011;44109;52.398;7.024;2024-02-14T09:41:36;14.43;;;12.32;;
58302;SDS011;44109;52.398;7.024;2024-02-14T09:44:09;14.25;;;12.75;;
58302;SDS011;44109;52.398;7.024;2024-02-14T09:46:37;14.63;;;11.18;;
58302;SDS011;44109;52.398;7.024;2024-02-14T09:49:05;14.98;;;11.75;;
58302;SDS011;44109;52.398;7.024;2024-02-14T09:51:35;20.80;;;17.02;;
58302;SDS011;44109;52.398;7.024;2024-02-14T09:54:06;13.52;;;11.07;;
58302;SDS011;44109;52.398;7.024;2024-02-14T09:56:36;17.08;;;13.77;;
58302;SDS011;44109;52.398;7.024;2024-02-14T09:59:03;14.45;;;12.55;;
58302;SDS011;44109;52.398;7.024;2024-02-14T10:01:33;20.48;;;13.35;;
58302;SDS011;44109;52.398;7.024;2024-02-14T10:04:01;18.10;;;13.38;;
58302;SDS011;44109;52.398;7.024;2024-02-14T10:06:28;16.83;;;13.63;;
58302;SDS011;44109;52.398;7.024;2024-02-14T10:08:58;14.85;;;11.38;;
58302;SDS011;44109;52.398;7.024;2024-02-14T10:11:26;19.95;;;14.02;;
58302;SDS011;44109;52.398;7.024;2024-02-14T10:13:53;17.33;;;13.73;;
58302;SDS011;44109;52.398;7.024;2024-02-14T10:16:26;19.77;;;14.18;;
58302;SDS011;44109;52.398;7.024;2024-02-14T10:18:53;17.48;;;13.55;;
58302;SDS011;44109;52.398;7.024;2024-02-14T10:21:22;15.18;;;11.85;;
58302;SDS011;44109;52.398;7.024;2024-02-14T10:23:51;11.23;;;10.02;;
58302;SDS011;44109;52.398;7.024;2024-02-14T10:26:21;18.10;;;13.75;;
58302;SDS011;44109;52.398;7.024;2024-02-14T10:28:49;16.15;;;9.82;;
58302;SDS011;44109;52.398;7.024;2024-02-14T10:31:17;17.85;;;12.68;;
58302;SDS011;44109;52.398;7.024;2024-02-14T10:33:45;11.70;;;9.20;;
58302;SDS011;44109;52.398;7.024;2024-02-14T10:36:13;12.50;;;9.63;;
58302;SDS011;44109;52.398;7.024;2024-02-14T10:38:42;13.18;;;10.52;;
58302;SDS011;44109;52.398;7.024;2024-02-14T10:41:14;10.70;;;9.57;;
58302;SDS011;44109;52.398;7.024;2024-02-14T10:43:44;10.13;;;8.70;;
58302;SDS011;44109;52.398;7.024;2024-02-14T10:46:12;8.68;;;7.20;;
58302;SDS011;44109;52.398;7.024;2024-02-14T10:48:47;13.52;;;10.48;;
58302;SDS011;44109;52.398;7.024;2024-02-14T10:51:16;10.85;;;9.55;;
58302;SDS011;44109;52.398;7.024;2024-02-14T10:53:48;10.40;;;8.10;;
58302;SDS011;44109;52.398;7.024;2024-02-14T10:56:19;9.27;;;8.15;;
58302;SDS011;44109;52.398;7.024;2024-02-14T10:58:49;9.93;;;8.73;;
58302;SDS011;44109;52.398;7.024;2024-02-14T11:01:23;11.98;;;10.48;;
58302;SDS011;44109;52.398;7.024;2024-02-14T11:03:53;12.13;;;10.60;;
58302;SDS011;44109;52.398;7.024;2024-02-14T11:06:24;9.98;;;8.05;;
58302;SDS011;44109;52.398;7.024;2024-02-14T11:08:55;15.10;;;11.25;;
58302;SDS011;44109;52.398;7.024;2024-02-14T11:11:24;9.57;;;8.38;;
58302;SDS011;44109;52.398;7.024;2024-02-14T11:13:53;13.68;;;10.35;;
58302;SDS011;44109;52.398;7.024;2024-02-14T11:16:27;10.85;;;8.93;;
58302;SDS011;44109;52.398;7.024;2024-02-14T11:19:10;11.38;;;10.18;;
58302;SDS011;44109;52.398;7.024;2024-02-14T11:21:40;7.88;;;6.88;;
58302;SDS011;44109;52.398;7.024;2024-02-14T11:24:09;12.02;;;8.93;;
58302;SDS011;44109;52.398;7.024;2024-02-14T11:26:38;8.63;;;7.10;;
58302;SDS011;44109;52.398;7.024;2024-02-14T11:29:13;7.53;;;6.50;;
58302;SDS011;44109;52.398;7.024;2024-02-14T11:31:43;13.27;;;7.93;;
58302;SDS011;44109;52.398;7.024;2024-02-14T11:34:12;10.00;;;7.53;;
58302;SDS011;44109;52.398;7.024;2024-02-14T11:36:40;9.48;;;7.50;;
58302;SDS011;44109;52.398;7.024;2024-02-14T11:39:10;10.07;;;7.05;;
58302;SDS011;44109;52.398;7.024;2024-02-14T11:41:38;9.43;;;8.13;;
58302;SDS011;44109;52.398;7.024;2024-02-14T11:44:09;8.23;;;7.25;;
58302;SDS011;44109;52.398;7.024;2024-02-14T11:46:38;10.10;;;7.43;;
58302;SDS011;44109;52.398;7.024;2024-02-14T11:49:07;8.95;;;7.97;;
58302;SDS011;44109;52.398;7.024;2024-02-14T11:51:36;8.27;;;7.15;;
58302;SDS011;44109;52.398;7.024;2024-02-14T11:54:04;8.80;;;7.68;;
58302;SDS011;44109;52.398;7.024;2024-02-14T11:56:33;14.93;;;11.38;;
58302;SDS011;44109;52.398;7.024;2024-02-14T11:59:02;6.40;;;5.63;;
58302;SDS011;44109;52.398;7.024;2024-02-14T12:01:34;12.20;;;9.93;;
58302;SDS011;44109;52.398;7.024;2024-02-14T12:04:04;13.65;;;10.38;;
58302;SDS011;44109;52.398;7.024;2024-02-14T12:06:38;12.10;;;8.77;;
58302;SDS011;44109;52.398;7.024;2024-02-14T12:09:08;16.02;;;12.38;;
58302;SDS011;44109;52.398;7.024;2024-02-14T12:11:36;14.90;;;10.80;;
58302;SDS011;44109;52.398;7.024;2024-02-14T12:14:05;15.98;;;11.73;;
58302;SDS011;44109;52.398;7.024;2024-02-14T12:16:35;16.77;;;13.23;;
58302;SDS011;44109;52.398;7.024;2024-02-14T12:19:03;14.75;;;11.48;;
58302;SDS011;44109;52.398;7.024;2024-02-14T12:21:35;23.17;;;15.80;;
58302;SDS011;44109;52.398;7.024;2024-02-14T12:24:06;13.30;;;9.70;;
58302;SDS011;44109;52.398;7.024;2024-02-14T12:26:35;22.55;;;17.00;;
58302;SDS011;44109;52.398;7.024;2024-02-14T12:29:05;15.18;;;11.68;;
58302;SDS011;44109;52.398;7.024;2024-02-14T12:31:35;17.40;;;13.50;;
58302;SDS011;44109;52.398;7.024;2024-02-14T12:34:03;18.27;;;13.98;;
58302;SDS011;44109;52.398;7.024;2024-02-14T12:36:32;14.27;;;11.98;;
58302;SDS011;44109;52.398;7.024;2024-02-14T12:39:01;17.73;;;13.43;;
58302;SDS011;44109;52.398;7.024;2024-02-14T12:41:29;14.70;;;11.40;;
58302;SDS011;44109;52.398;7.024;2024-02-14T12:43:59;23.83;;;16.83;;
58302;SDS011;44109;52.398;7.024;2024-02-14T12:46:27;15.52;;;13.02;;
58302;SDS011;44109;52.398;7.024;2024-02-14T12:48:56;14.68;;;10.95;;
58302;SDS011;44109;52.398;7.024;2024-02-14T12:51:24;17.35;;;13.63;;
58302;SDS011;44109;52.398;7.024;2024-02-14T12:53:54;14.27;;;10.77;;
58302;SDS011;44109;52.398;7.024;2024-02-14T12:56:21;15.10;;;11.65;;
58302;SDS011;44109;52.398;7.024;2024-02-14T12:58:49;16.35;;;12.43;;
58302;SDS011;44109;52.398;7.024;2024-02-14T13:01:17;19.17;;;14.15;;
58302;SDS011;44109;52.398;7.024;2024-02-14T13:03:45;17.70;;;12.80;;
58302;SDS011;44109;52.398;7.024;2024-02-14T13:06:13;14.02;;;11.35;;
58302;SDS011;44109;52.398;7.024;2024-02-14T13:08:41;20.08;;;14.27;;
58302;SDS011;44109;52.398;7.024;2024-02-14T13:11:09;18.48;;;14.07;;
58302;SDS011;44109;52.398;7.024;2024-02-14T13:13:37;20.00;;;11.68;;
58302;SDS011;44109;52.398;7.024;2024-02-14T13:16:06;16.45;;;12.13;;
58302;SDS011;44109;52.398;7.024;2024-02-14T13:18:33;16.00;;;12.68;;
58302;SDS011;44109;52.398;7.024;2024-02-14T13:21:02;18.23;;;14.27;;
58302;SDS011;44109;52.398;7.024;2024-02-14T13:23:31;14.85;;;12.50;;
58302;SDS011;44109;52.398;7.024;2024-02-14T13:25:59;13.02;;;11.55;;
58302;SDS011;44109;52.398;7.024;2024-02-14T13:28:27;11.02;;;8.98;;
58302;SDS011;44109;52.398;7.024;2024-02-14T13:30:55;16.63;;;12.30;;
58302;SDS011;44109;52.398;7.024;2024-02-14T13:33:23;13.07;;;11.07;;
58302;SDS011;44109;52.398;7.024;2024-02-14T13:35:50;15.68;;;10.60;;
58302;SDS011;44109;52.398;7.024;2024-02-14T13:38:18;14.82;;;12.23;;
58302;SDS011;44109;52.398;7.024;2024-02-14T13:40:48;14.38;;;10.73;;
58302;SDS011;44109;52.398;7.024;2024-02-14T13:43:15;16.45;;;11.77;;
58302;SDS011;44109;52.398;7.024;2024-02-14T13:45:44;16.17;;;13.15;;
58302;SDS011;44109;52.398;7.024;2024-02-14T13:48:14;14.52;;;9.57;;
58302;SDS011;44109;52.398;7.024;2024-02-14T13:50:42;12.88;;;10.05;;
58302;SDS011;44109;52.398;7.024;2024-02-14T13:53:09;18.20;;;12.82;;
58302;SDS011;44109;52.398;7.024;2024-02-14T13:55:37;12.02;;;9.48;;
58302;SDS011;44109;52.398;7.024;2024-02-14T13:58:06;10.45;;;8.10;;
58302;SDS011;44109;52.398;7.024;2024-02-14T14:00:39;13.38;;;9.05;;
58302;SDS011;44109;52.398;7.024;2024-02-14T14:03:07;12.10;;;10.27;;
58302;SDS011;44109;52.398;7.024;2024-02-14T14:05:34;12.10;;;9.52;;
58302;SDS011;44109;52.398;7.024;2024-02-14T14:08:03;12.93;;;10.30;;
58302;SDS011;44109;52.398;7.024;2024-02-14T14:10:31;11.98;;;9.52;;
58302;SDS011;44109;52.398;7.024;2024-02-14T14:12:59;7.53;;;6.57;;
58302;SDS011;44109;52.398;7.024;2024-02-14T14:15:28;11.07;;;7.70;;
58302;SDS011;44109;52.398;7.024;2024-02-14T14:17:58;12.48;;;10.45;;
58302;SDS011;44109;52.398;7.024;2024-02-14T14:20:26;11.80;;;7.80;;
58302;SDS011;44109;52.398;7.024;2024-02-14T14:22:53;12.15;;;9.13;;
58302;SDS011;44109;52.398;7.024;2024-02-14T14:25:22;12.88;;;8.15;;
58302;SDS011;44109;52.398;7.024;2024-02-14T14:27:50;9.77;;;7.68;;
58302;SDS011;44109;52.398;7.024;2024-02-14T14:30:18;12.30;;;7.07;;
58302;SDS011;44109;52.398;7.024;2024-02-14T14:32:47;9.15;;;7.15;;
58302;SDS011;44109;52.398;7.024;2024-02-14T14:35:15;8.93;;;6.93;;
58302;SDS011;44109;52.398;7.024;2024-02-14T14:37:42;6.60;;;5.13;;
58302;SDS011;44109;52.398;7.024;2024-02-14T14:40:10;7.35;;;6.22;;